Terminal Aerodrome Forecast
Issued by NWS Portland, OR

Home | Current Version | Previous Version | Text Only | Print | Product List | Glossary On
Versions: 1 2 3 4 5 6 7 8 9 10 11 12 13 14 15
000
FTUS46 KPQR 251139
TAFEUG
TAF
KEUG 251139Z 2512/2612 15005KT P6SM BKN018 OVC040
     FM251500 18005KT P6SM SCT022 OVC060
     FM251900 18009KT P6SM -RA SCT025 OVC045
     FM260000 20011KT 6SM -RA BKN025 OVC045
     FM260300 22007KT P6SM -RA SCT015 OVC025=

USA.gov is the U.S. government's official web portal to all federal, state and local government web resources and services.